Time;durP1;ratioP1;P1;durP2;ratioP2;P2;SDS_P1;SDS_P2;PMS_P1;PMS_P2;Temp;Humidity;BMP_temperature;BMP_pressure;BME280_temperature;BME280_humidity;BME280_pressure;Samples;Min_cycle;Max_cycle;Signal;HPM_P1;HPM_P2
2021/10/28 00:14:05;;;;;;;13.70;9.50;;;;;;;12.22;68.33;100877.26;113200;1193;99286;-66
2021/10/28 00:16:55;;;;;;;12.90;8.90;;;;;;;12.20;68.27;100883.40;114603;1193;138350;-67
2021/10/28 00:19:42;;;;;;;11.40;9.00;;;;;;;12.19;68.40;100881.32;114750;1193;107489;-68
2021/10/28 00:22:29;;;;;;;11.90;9.70;;;;;;;12.22;68.51;100876.91;114645;1193;138059;-67
2021/10/28 00:25:16;;;;;;;13.40;9.60;;;;;;;12.23;68.45;100875.48;114743;1193;95888;-68
2021/10/28 00:28:03;;;;;;;12.90;10.00;;;;;;;12.22;68.43;100875.16;114678;1193;137666;-67
2021/10/28 00:30:50;;;;;;;12.70;9.40;;;;;;;12.22;68.50;100876.21;114795;1193;111758;-67
2021/10/28 00:33:37;;;;;;;13.10;10.00;;;;;;;12.21;68.48;100877.45;114740;1193;108845;-67
2021/10/28 00:36:25;;;;;;;13.20;10.10;;;;;;;12.20;68.49;100872.59;113248;1195;138668;-67
2021/10/28 00:39:12;;;;;;;;;;;;;;;12.23;68.55;100872.17;113325;1193;97595;-67
2021/10/28 00:41:59;;;;;;;12.90;9.90;;;;;;;12.22;68.57;100873.41;113257;1193;122862;-67
2021/10/28 00:44:46;;;;;;;13.60;9.90;;;;;;;12.22;68.69;100870.65;113369;1193;112079;-66
2021/10/28 00:47:36;;;;;;;11.40;9.40;;;;;;;12.18;68.65;100868.28;113304;1193;137860;-66
2021/10/28 00:50:23;;;;;;;14.20;9.70;;;;;;;12.16;68.82;100869.58;114703;1193;108545;-67
2021/10/28 00:53:09;;;;;;;12.20;8.70;;;;;;;12.15;68.84;100869.25;114500;1193;138421;-67
2021/10/28 00:55:56;;;;;;;12.70;9.70;;;;;;;12.16;68.92;100867.48;114782;1193;95878;-67
2021/10/28 00:58:43;;;;;;;12.50;9.30;;;;;;;12.18;68.89;100865.32;114610;1193;137857;-67
2021/10/28 01:01:30;;;;;;;12.60;8.90;;;;;;;12.20;68.91;100865.95;114727;1193;108564;-67
2021/10/28 01:04:17;;;;;;;12.40;9.50;;;;;;;12.20;68.96;100862.98;114595;1193;137829;-67
2021/10/28 01:07:04;;;;;;;12.10;9.00;;;;;;;12.18;68.92;100863.05;114721;1193;95810;-67
2021/10/28 01:09:51;;;;;;;11.00;8.70;;;;;;;12.18;68.97;100861.66;114747;1193;96807;-67
2021/10/28 01:12:39;;;;;;;13.00;9.20;;;;;;;12.19;69.03;100855.87;114615;1193;137597;-67
2021/10/28 01:15:26;;;;;;;;;;;;;;;12.19;69.10;100848.91;114803;1193;107900;-67
2021/10/28 01:18:15;;;;;;;14.10;9.90;;;;;;;12.19;69.23;100854.13;114595;1193;123027;-67
2021/10/28 01:21:04;;;;;;;14.60;9.80;;;;;;;12.18;69.17;100848.42;114759;1193;96000;-67
2021/10/28 01:23:50;;;;;;;12.80;10.10;;;;;;;12.17;69.17;100847.07;114691;1193;138570;-67
2021/10/28 01:26:37;;;;;;;12.50;10.40;;;;;;;12.16;69.20;100841.86;114846;1193;112506;-67
2021/10/28 01:29:24;;;;;;;14.50;10.60;;;;;;;12.17;69.30;100841.11;114703;1193;137919;-67
2021/10/28 01:32:11;;;;;;;14.50;10.30;;;;;;;12.20;69.30;100842.25;114787;1193;108650;-67
2021/10/28 01:34:57;;;;;;;11.90;10.00;;;;;;;12.20;69.36;100848.88;114693;1193;139396;-67
2021/10/28 01:37:46;;;;;;;12.70;9.90;;;;;;;12.17;69.30;100846.86;114764;1193;96315;-67
2021/10/28 01:40:33;;;;;;;11.40;9.10;;;;;;;12.13;69.25;100850.13;114572;1194;138570;-67
2021/10/28 01:43:19;;;;;;;11.50;9.70;;;;;;;12.13;69.35;100848.73;114748;1193;108554;-67
2021/10/28 01:46:06;;;;;;;14.80;8.90;;;;;;;12.17;69.45;100852.48;114689;1193;109366;-67
2021/10/28 01:48:53;;;;;;;11.70;9.40;;;;;;;12.18;69.39;100849.27;114671;1193;137746;-67
2021/10/28 01:51:39;;;;;;;13.10;10.40;;;;;;;12.18;69.39;100844.23;114822;1193;95778;-67
2021/10/28 01:54:31;;;;;;;11.60;9.90;;;;;;;12.17;69.35;100853.15;114642;1193;137759;-67
2021/10/28 01:57:22;;;;;;;10.30;9.10;;;;;;;12.17;69.36;100844.23;114792;1193;108672;-67
2021/10/28 02:00:19;;;;;;;12.20;9.60;;;;;;;12.19;69.37;100847.16;114699;1193;138073;-67
2021/10/28 02:03:06;;;;;;;13.30;8.90;;;;;;;12.22;69.39;100842.92;113273;1193;97744;-68
2021/10/28 02:05:53;;;;;;;11.90;9.00;;;;;;;12.24;69.33;100839.90;113130;1193;139441;-68
2021/10/28 02:08:40;;;;;;;12.40;9.30;;;;;;;12.22;69.44;100841.86;113284;1193;112149;-68
2021/10/28 02:11:27;;;;;;;11.80;9.20;;;;;;;12.20;69.36;100840.87;113152;1193;139218;-67
2021/10/28 02:14:14;;;;;;;10.30;8.00;;;;;;;12.19;69.38;100839.48;113204;1193;108523;-67
2021/10/28 02:17:00;;;;;;;10.50;8.50;;;;;;;12.20;69.46;100836.34;113112;1193;138573;-68
2021/10/28 02:19:47;;;;;;;10.10;8.50;;;;;;;12.22;69.46;100842.92;113311;1193;97718;-68
2021/10/28 02:22:35;;;;;;;10.90;8.50;;;;;;;12.21;69.37;100842.41;113008;1187;139310;-67
2021/10/28 02:25:22;;;;;;;12.00;8.10;;;;;;;12.20;69.43;100838.41;113336;1193;107654;-67
2021/10/28 02:28:12;;;;;;;11.30;8.00;;;;;;;12.17;69.37;100837.45;113252;1193;108532;-67
2021/10/28 02:30:59;;;;;;;12.50;7.80;;;;;;;12.16;69.58;100838.72;113060;1193;138970;-67
2021/10/28 02:33:46;;;;;;;10.30;7.70;;;;;;;12.16;69.51;100839.77;113282;1193;98095;-67
2021/10/28 02:36:33;;;;;;;11.80;8.50;;;;;;;12.17;69.57;100839.20;113107;1193;137616;-68
2021/10/28 02:39:20;;;;;;;10.60;7.70;;;;;;;12.21;69.59;100845.02;113247;1193;108793;-67
2021/10/28 02:42:07;;;;;;;12.00;8.40;;;;;;;12.19;69.54;100843.14;113195;1193;137858;-68
2021/10/28 02:44:54;;;;;;;10.60;8.30;;;;;;;12.16;69.56;100842.89;113295;1194;97497;-67
2021/10/28 02:47:41;;;;;;;10.00;7.30;;;;;;;12.18;69.57;100843.52;113215;1193;138255;-67
2021/10/28 02:50:28;;;;;;;10.20;7.90;;;;;;;12.19;69.53;100847.88;113242;1193;112355;-68
2021/10/28 02:53:16;;;;;;;10.00;7.20;;;;;;;12.19;69.52;100855.52;113213;1193;138610;-67
2021/10/28 02:56:04;;;;;;;10.40;7.50;;;;;;;12.22;69.68;100852.50;113340;1193;108806;-67
2021/10/28 02:58:51;;;;;;;12.30;7.80;;;;;;;12.25;69.65;100855.73;113109;1193;138154;-68
2021/10/28 03:01:45;;;;;;;9.10;6.90;;;;;;;12.25;69.47;100861.84;113266;1193;98140;-67
2021/10/28 03:04:32;;;;;;;9.70;7.20;;;;;;;12.20;69.47;100865.27;113266;1193;112392;-68
2021/10/28 03:07:19;;;;;;;8.50;6.90;;;;;;;12.19;69.61;100867.92;114641;1193;140377;-68
2021/10/28 03:10:09;;;;;;;9.90;7.70;;;;;;;12.20;69.46;100865.98;114725;1193;108570;-68
2021/10/28 03:12:56;;;;;;;9.20;7.30;;;;;;;12.20;69.54;100868.75;114594;1194;138347;-68
2021/10/28 03:15:42;;;;;;;10.10;8.30;;;;;;;12.17;69.44;100872.88;114761;1193;95932;-68
2021/10/28 03:27:47;;;;;;;9.40;7.40;;;;;;;12.16;69.65;100891.71;114709;1193;95856;-66
2021/10/28 03:30:34;;;;;;;9.30;8.00;;;;;;;12.19;69.66;100892.85;114653;1193;137422;-67
2021/10/28 03:33:22;;;;;;;9.50;7.30;;;;;;;12.17;69.52;100898.84;113673;1193;112174;-67
2021/10/28 03:36:14;;;;;;;9.30;6.90;;;;;;;12.12;69.50;100899.49;113197;1193;137722;-68
2021/10/28 04:00:10;;;;;;;11.60;8.10;;;;;;;12.10;69.62;100908.63;114629;1193;139531;-67
2021/10/28 04:29:56;;;;;;;12.80;8.40;;;;;;;12.02;69.82;100922.58;113133;1193;138171;-67
2021/10/28 04:32:42;;;;;;;11.30;8.90;;;;;;;12.05;69.85;100925.67;114768;1193;112239;-68
2021/10/28 04:35:29;;;;;;;11.00;8.90;;;;;;;12.04;69.85;100924.47;114625;1193;138477;-68
2021/10/28 04:38:16;;;;;;;10.70;9.40;;;;;;;12.03;69.88;100921.88;114698;1193;107619;-68
2021/10/28 04:41:03;;;;;;;11.20;9.60;;;;;;;12.01;69.86;100925.06;113607;1193;138463;-67
2021/10/28 04:43:51;;;;;;;10.80;9.20;;;;;;;12.00;69.84;100926.66;113254;1193;97626;-67
2021/10/28 04:46:39;;;;;;;13.90;10.30;;;;;;;12.04;69.96;100930.56;113295;1193;112335;-67
2021/10/28 04:49:26;;;;;;;11.30;9.50;;;;;;;12.08;69.94;100926.11;113174;1181;137708;-68
2021/10/28 04:52:12;;;;;;;14.70;10.50;;;;;;;12.07;69.80;100932.59;114733;1193;106967;-68
2021/10/28 04:54:59;;;;;;;14.30;10.20;;;;;;;12.05;69.83;100934.55;114559;1193;138746;-68
2021/10/28 04:57:46;;;;;;;15.40;10.10;;;;;;;12.02;69.84;100938.47;114749;1193;95872;-68
2021/10/28 05:00:33;;;;;;;12.00;9.90;;;;;;;11.97;69.87;100940.69;114599;1193;138589;-68
2021/10/28 05:03:19;;;;;;;13.20;11.00;;;;;;;11.99;69.90;100942.36;114687;1193;108565;-68
2021/10/28 05:06:06;;;;;;;13.80;10.60;;;;;;;12.05;70.01;100943.61;114563;1193;137845;-68
2021/10/28 05:08:53;;;;;;;13.30;10.90;;;;;;;12.06;69.86;100946.90;113253;1193;97490;-68
2021/10/28 05:11:39;;;;;;;12.20;10.70;;;;;;;12.07;69.78;100948.27;113242;1193;137922;-68
2021/10/28 05:14:26;;;;;;;15.60;11.30;;;;;;;12.03;69.85;100946.27;113253;1194;112075;-68
2021/10/28 05:17:13;;;;;;;14.90;11.50;;;;;;;12.02;69.92;100948.04;113208;1193;138937;-68
2021/10/28 05:19:59;;;;;;;13.90;11.40;;;;;;;12.03;69.87;100947.85;113207;1193;109575;-67
2021/10/28 05:22:46;;;;;;;13.50;11.50;;;;;;;12.02;69.92;100946.65;113236;1193;98023;-68
2021/10/28 05:25:33;;;;;;;15.20;12.30;;;;;;;12.00;69.89;100948.45;113178;1193;137720;-68
2021/10/28 05:28:20;;;;;;;18.10;12.90;;;;;;;11.99;69.81;100947.42;113260;1193;111985;-68
2021/10/28 05:31:07;;;;;;;14.80;11.60;;;;;;;11.96;69.94;100949.42;113163;1193;137999;-67
2021/10/28 05:33:54;;;;;;;15.30;12.10;;;;;;;11.93;69.93;100951.25;113179;1195;108545;-67
2021/10/28 05:36:41;;;;;;;13.90;12.00;;;;;;;11.92;70.01;100955.30;113158;1193;138285;-68
2021/10/28 05:39:28;;;;;;;15.00;13.00;;;;;;;11.91;70.03;100955.50;113274;1194;97561;-67
2021/10/28 05:42:35;;;;;;;16.90;12.60;;;;;;;11.90;70.02;100959.17;113224;1193;137725;-68
2021/10/28 05:45:23;;;;;;;13.80;12.30;;;;;;;11.87;70.17;100965.90;113259;1194;109566;-68
2021/10/28 05:48:10;;;;;;;17.40;12.80;;;;;;;11.85;70.16;100970.65;114562;1193;137960;-68
2021/10/28 05:50:57;;;;;;;14.40;12.70;;;;;;;11.85;70.23;100971.17;114666;1193;95891;-68
2021/10/28 05:53:44;;;;;;;15.80;13.00;;;;;;;11.84;70.15;100970.46;114427;1193;138285;-68
2021/10/28 05:56:31;;;;;;;18.00;13.00;;;;;;;11.88;70.24;100974.05;114730;1193;112192;-69
2021/10/28 05:59:18;;;;;;;14.80;12.80;;;;;;;11.92;70.22;100972.91;114602;1193;138608;-68
2021/10/28 06:02:05;;;;;;;16.20;13.00;;;;;;;11.93;70.17;100972.00;114679;1193;107462;-68
2021/10/28 06:04:52;;;;;;;17.10;13.00;;;;;;;11.95;70.07;100975.25;113918;1195;97592;-68
2021/10/28 06:07:40;;;;;;;17.20;13.10;;;;;;;11.97;70.06;100973.29;113196;1194;138310;-68
2021/10/28 06:10:27;;;;;;;18.30;14.10;;;;;;;12.00;69.98;100977.90;114789;1193;112016;-67
2021/10/28 06:13:14;;;;;;;17.60;13.90;;;;;;;12.03;69.91;100978.54;114566;1193;138527;-68
2021/10/28 06:16:02;;;;;;;20.60;13.40;;;;;;;12.06;69.81;100981.78;114633;1193;109783;-67
2021/10/28 06:18:50;;;;;;;16.60;13.20;;;;;;;12.06;69.68;100981.42;114598;1193;137841;-67
2021/10/28 06:21:39;;;;;;;17.00;13.50;;;;;;;12.03;69.79;100986.55;114792;1193;95670;-66
2021/10/28 06:24:27;;;;;;;16.50;12.00;;;;;;;12.04;69.71;100987.41;114641;1193;140139;-69
2021/10/28 06:27:13;;;;;;;15.40;12.10;;;;;;;12.08;69.63;100986.23;114714;1193;108264;-70
2021/10/28 06:30:00;;;;;;;16.20;11.90;;;;;;;12.12;69.58;100987.52;114547;1187;138874;-68
2021/10/28 06:32:54;;;;;;;14.50;13.00;;;;;;;12.13;69.53;100993.96;114740;1194;95860;-68
2021/10/28 06:35:42;;;;;;;14.50;12.60;;;;;;;12.12;69.48;100998.16;114668;1193;138676;-68
2021/10/28 06:38:32;;;;;;;16.80;12.90;;;;;;;12.13;69.46;101001.11;114615;1193;112148;-68
2021/10/28 06:41:20;;;;;;;14.70;11.60;;;;;;;12.15;69.41;101000.53;113115;1194;138950;-70
2021/10/28 06:44:08;;;;;;;13.60;11.70;;;;;;;12.22;69.46;100998.96;114719;1193;108677;-68
2021/10/28 06:46:55;;;;;;;20.00;12.60;;;;;;;12.27;69.35;100997.94;114788;1193;95717;-68
2021/10/28 06:49:42;;;;;;;14.80;12.70;;;;;;;12.30;69.19;100998.90;114639;1193;137997;-68
2021/10/28 06:52:38;;;;;;;16.20;12.50;;;;;;;12.33;69.05;101003.51;114751;1193;112144;-68
2021/10/28 07:04:10;;;;;;;17.00;12.70;;;;;;;12.39;68.91;101013.80;114762;1193;95843;-68
2021/10/28 07:06:57;;;;;;;17.70;12.70;;;;;;;12.42;68.78;101012.37;114568;1193;137992;-67
2021/10/28 07:10:31;;;;;;;24.10;15.10;;;;;;;12.42;68.82;101011.84;114703;1193;107497;-67
2021/10/28 07:15:50;;;;;;;21.60;14.00;;;;;;;12.42;68.71;101014.81;114717;1193;96043;-67
2021/10/28 07:27:36;;;;;;;19.70;14.40;;;;;;;12.48;68.67;101010.79;113278;1194;108073;-68
2021/10/28 07:58:48;;;;;;;18.40;14.90;;;;;;;12.76;68.16;101005.48;113859;1193;108613;-68
2021/10/28 08:20:11;;;;;;;15.80;12.30;;;;;;;13.00;67.16;101013.46;114622;1193;137657;-67
2021/10/28 08:29:20;;;;;;;16.70;13.00;;;;;;;13.16;66.94;101019.27;114712;1193;108557;-69
2021/10/28 08:32:07;;;;;;;16.30;13.30;;;;;;;13.19;66.77;101021.99;114608;1193;137763;-68
2021/10/28 08:34:57;;;;;;;16.10;13.10;;;;;;;13.19;66.53;101020.25;114729;1193;96759;-69
2021/10/28 08:37:52;;;;;;;15.60;11.50;;;;;;;13.22;66.48;101020.31;114557;1193;138215;-69
2021/10/28 08:40:38;;;;;;;17.10;12.80;;;;;;;13.27;66.44;101016.69;114702;1193;108735;-68
2021/10/28 08:43:30;;;;;;;14.50;11.70;;;;;;;13.34;66.33;101013.17;114606;1193;138430;-68
2021/10/28 08:46:18;;;;;;;13.10;11.10;;;;;;;13.36;66.11;101010.64;114741;1193;97034;-69
2021/10/28 08:49:08;;;;;;;14.60;11.90;;;;;;;13.38;65.97;101012.33;114639;1193;139134;-68
2021/10/28 08:52:16;;;;;;;13.30;11.20;;;;;;;13.42;65.86;101013.58;114716;1193;112064;-69
2021/10/28 09:26:24;;;;;;;14.10;11.10;;;;;;;13.84;64.44;101012.77;114269;1195;138263;-69
2021/10/28 09:29:30;;;;;;;14.70;12.00;;;;;;;13.86;64.41;101015.14;114709;1193;107564;-69
2021/10/28 09:45:09;;;;;;;15.30;12.00;;;;;;;14.05;63.56;101020.60;114592;1193;108636;-68
2021/10/28 09:50:49;;;;;;;15.70;11.60;;;;;;;14.20;63.64;101018.16;114556;1193;124325;-69
2021/10/28 10:00:00;;;;;;;12.00;10.00;;;;;;;14.39;62.91;101012.60;114740;1193;108937;-69
2021/10/28 10:02:55;;;;;;;11.30;9.60;;;;;;;14.48;62.42;101009.34;114597;1193;137787;-69
2021/10/28 10:05:44;;;;;;;12.50;10.30;;;;;;;14.54;62.22;101008.42;113928;1193;97612;-69
2021/10/28 10:08:32;;;;;;;15.10;11.40;;;;;;;14.60;62.11;101007.15;114610;1193;138559;-68
2021/10/28 10:11:24;;;;;;;12.00;9.90;;;;;;;14.69;62.08;101012.20;114763;1193;108585;-68
2021/10/28 10:14:11;;;;;;;13.00;9.80;;;;;;;14.74;61.96;101016.61;114607;1193;139692;-68
2021/10/28 10:16:58;;;;;;;14.20;10.00;;;;;;;14.76;61.75;101014.98;114658;1193;95955;-68
2021/10/28 10:19:50;;;;;;;14.50;10.60;;;;;;;14.76;61.66;101020.37;114616;1193;137758;-68
2021/10/28 10:26:08;;;;;;;10.30;8.40;;;;;;;14.72;61.37;101017.89;114622;1193;140090;-68
2021/10/28 11:04:34;;;;;;;7.80;6.00;;;;;;;14.28;60.50;101023.31;114518;1193;137396;-68
2021/10/28 12:49:00;;;;;;;16.60;12.70;;;;;;;14.57;58.94;100953.02;113085;1193;108666;-68
2021/10/28 13:04:48;;;;;;;16.20;13.70;;;;;;;14.46;58.90;100954.27;114618;1193;138595;-68
2021/10/28 13:53:34;;;;;;;19.60;17.10;;;;;;;14.13;58.80;100942.66;113196;1193;137807;-70
2021/10/28 14:26:45;;;;;;;27.10;22.10;;;;;;;13.46;60.63;100943.07;114610;1193;95944;-68
2021/10/28 15:27:56;;;;;;;27.30;20.40;;;;;;;11.92;64.75;100928.80;113828;1193;97615;-68
2021/10/28 15:37:00;;;;;;;26.70;18.90;;;;;;;11.75;65.32;100926.63;114439;1193;137428;-67
2021/10/28 16:22:32;;;;;;;37.60;23.90;;;;;;;11.32;67.16;100918.83;114757;1193;108700;-68
2021/10/28 16:25:19;;;;;;;33.00;23.60;;;;;;;11.29;67.28;100913.48;114573;1193;138372;-68
2021/10/28 16:28:05;;;;;;;38.00;22.10;;;;;;;11.28;67.37;100912.46;114729;1193;96433;-68
2021/10/28 16:30:52;;;;;;;35.70;25.20;;;;;;;11.27;67.29;100912.49;114627;1193;138251;-70
2021/10/28 16:33:41;;;;;;;35.00;25.90;;;;;;;11.27;67.45;100907.62;114719;1193;113846;-69
2021/10/28 16:36:29;;;;;;;34.50;25.80;;;;;;;11.26;67.55;100913.04;114566;1193;137818;-69
2021/10/28 16:39:17;;;;;;;34.00;24.60;;;;;;;11.24;67.70;100912.92;114705;1193;108386;-71
2021/10/28 16:42:04;;;;;;;29.40;22.90;;;;;;;11.20;67.81;100910.41;114596;1193;139093;-68
2021/10/28 16:44:51;;;;;;;30.30;23.50;;;;;;;11.18;67.84;100910.63;114648;1193;95918;-70
2021/10/28 16:47:38;;;;;;;32.20;23.50;;;;;;;11.17;67.96;100910.83;114534;1193;138295;-70
2021/10/28 16:50:26;;;;;;;37.40;25.50;;;;;;;11.14;67.98;100910.56;114648;1193;108657;-70
2021/10/28 16:53:13;;;;;;;;;;;;;;;11.11;68.00;100914.27;113837;1193;139385;-70
2021/10/28 16:56:17;;;;;;;34.50;24.50;;;;;;;11.08;68.22;100916.61;113267;1193;98297;-69
2021/10/28 16:59:04;;;;;;;32.40;25.10;;;;;;;11.04;68.43;100918.62;113092;1193;138103;-71
2021/10/28 17:01:53;;;;;;;30.50;24.20;;;;;;;11.02;68.49;100917.46;114549;1194;112353;-70
2021/10/28 17:04:40;;;;;;;35.30;25.80;;;;;;;10.98;68.63;100917.91;114676;1193;107592;-74
2021/10/28 17:07:27;;;;;;;36.10;26.20;;;;;;;10.97;68.68;100919.84;114608;1193;138062;-73
2021/10/28 17:10:13;;;;;;;38.30;25.90;;;;;;;10.95;68.72;100919.70;114687;1193;95879;-71
2021/10/28 17:13:00;;;;;;;37.50;26.30;;;;;;;10.91;69.01;100922.73;114621;1193;136598;-69
2021/10/28 17:15:47;;;;;;;40.20;24.80;;;;;;;10.88;68.83;100925.61;114642;1193;111600;-71
2021/10/28 17:18:34;;;;;;;35.70;25.30;;;;;;;10.87;68.93;100923.55;114598;1193;138349;-71
2021/10/28 17:21:21;;;;;;;37.10;26.40;;;;;;;10.86;69.06;100924.44;114628;1194;108266;-72
2021/10/28 17:24:19;;;;;;;37.70;26.60;;;;;;;10.83;69.11;100920.14;114557;1193;138069;-72
2021/10/28 17:27:06;;;;;;;37.90;26.70;;;;;;;10.79;69.08;100925.62;114710;1193;96079;-72
2021/10/28 17:29:53;;;;;;;36.90;25.30;;;;;;;10.76;69.28;100928.81;114568;1193;139475;-72
2021/10/28 17:32:41;;;;;;;37.10;25.90;;;;;;;10.72;69.40;100924.72;114671;1193;107408;-73
2021/10/28 17:35:29;;;;;;;41.50;28.60;;;;;;;10.69;69.59;100924.45;113337;1193;138128;-71
2021/10/28 17:38:19;;;;;;;36.10;27.10;;;;;;;10.65;69.69;100921.41;113198;1190;97517;-69
2021/10/28 17:41:07;;;;;;;43.90;28.20;;;;;;;10.61;69.69;100921.86;113925;1193;138640;-71
2021/10/28 17:44:05;;;;;;;40.30;28.40;;;;;;;10.59;69.89;100922.59;114751;1193;112095;-71
2021/10/28 17:46:52;;;;;;;43.90;28.80;;;;;;;10.54;69.92;100921.11;114681;1193;107448;-69
2021/10/28 17:49:39;;;;;;;40.00;28.10;;;;;;;10.49;70.19;100922.45;114516;1193;138293;-68
2021/10/28 17:52:42;;;;;;;39.20;25.80;;;;;;;10.44;70.22;100925.02;114650;1193;96083;-73
2021/10/28 17:55:29;;;;;;;37.20;25.80;;;;;;;10.41;70.41;100922.62;114614;1193;138089;-70
2021/10/28 17:58:16;;;;;;;36.90;26.40;;;;;;;10.38;70.51;100928.23;114652;1193;113366;-70
2021/10/28 18:01:02;;;;;;;35.20;25.10;;;;;;;10.34;70.59;100928.85;114578;1193;137288;-70
2021/10/28 18:03:54;;;;;;;33.80;24.90;;;;;;;10.31;70.78;100928.73;114601;1193;107428;-70
2021/10/28 18:06:40;;;;;;;38.30;26.50;;;;;;;10.28;70.96;100926.70;114537;1193;139582;-71
2021/10/28 18:09:28;;;;;;;34.80;25.00;;;;;;;10.28;71.07;100924.63;114703;1193;96672;-69
2021/10/28 18:12:14;;;;;;;36.10;25.00;;;;;;;10.26;71.13;100926.58;114551;1193;139592;-69
2021/10/28 18:15:03;;;;;;;33.80;24.60;;;;;;;10.25;71.22;100924.70;114448;1193;108519;-69
2021/10/28 18:17:50;;;;;;;35.10;26.00;;;;;;;10.25;71.26;100924.52;113188;1193;138606;-69
2021/10/28 18:20:38;;;;;;;34.00;25.00;;;;;;;10.26;71.33;100924.67;113061;1193;97523;-68
2021/10/28 18:23:49;;;;;;;31.40;24.20;;;;;;;10.25;71.45;100926.77;113129;1193;138742;-75
2021/10/28 18:26:36;;;;;;;34.80;26.60;;;;;;;10.25;71.55;100925.74;113314;1193;111836;-73
2021/10/28 18:29:23;;;;;;;37.10;26.30;;;;;;;10.23;71.57;100922.98;113280;1193;138445;-72
2021/10/28 18:32:10;;;;;;;39.70;25.00;;;;;;;10.21;71.64;100922.14;114728;1193;108548;-74
2021/10/28 18:34:56;;;;;;;36.80;26.00;;;;;;;10.19;71.84;100917.62;114721;1193;96742;-74
2021/10/28 18:37:44;;;;;;;41.10;26.40;;;;;;;10.19;71.90;100917.98;114534;1193;137562;-74
2021/10/28 18:40:31;;;;;;;39.40;26.40;;;;;;;10.19;71.94;100912.08;114729;1193;111840;-74
2021/10/28 18:43:18;;;;;;;33.80;25.90;;;;;;;10.18;71.94;100906.71;114585;1193;139513;-75
2021/10/28 18:46:04;;;;;;;36.00;25.30;;;;;;;10.20;72.03;100907.70;114698;1193;108623;-74
2021/10/28 18:48:53;;;;;;;40.20;26.60;;;;;;;10.20;72.08;100908.92;114662;1193;138437;-73
2021/10/28 18:51:43;;;;;;;39.10;26.10;;;;;;;10.20;72.22;100909.61;114749;1193;95827;-74
2021/10/28 18:54:30;;;;;;;38.90;26.10;;;;;;;10.20;72.05;100903.02;114581;1193;139365;-76
2021/10/28 18:57:17;;;;;;;42.50;27.30;;;;;;;10.22;72.14;100900.40;114234;1193;108860;-76
2021/10/28 19:00:10;;;;;;;39.90;28.00;;;;;;;10.22;72.21;100899.34;113154;1193;137572;-76
2021/10/28 19:02:58;;;;;;;38.80;27.10;;;;;;;10.21;72.34;100896.41;113337;1193;99053;-76
2021/10/28 19:05:45;;;;;;;35.40;26.00;;;;;;;10.20;72.39;100894.49;113136;1193;138923;-75
2021/10/28 19:08:33;;;;;;;43.30;28.50;;;;;;;10.19;72.26;100894.35;113272;1193;112220;-75
2021/10/28 19:11:24;;;;;;;37.70;27.50;;;;;;;10.17;72.60;100894.20;113013;1193;138505;-75
2021/10/28 19:14:10;;;;;;;37.60;27.40;;;;;;;10.15;72.72;100892.54;113172;1193;108675;-75
2021/10/28 19:16:57;;;;;;;38.00;26.00;;;;;;;10.13;73.07;100893.77;113232;1193;98683;-75
2021/10/28 19:19:44;;;;;;;44.60;29.00;;;;;;;10.12;73.03;100893.81;113138;1193;136774;-70
2021/10/28 19:22:39;;;;;;;39.20;27.90;;;;;;;10.09;72.98;100888.83;114609;1193;111110;-72
2021/10/28 19:25:26;;;;;;;42.50;28.30;;;;;;;10.07;73.12;100894.09;114603;1193;137534;-69
2021/10/28 19:28:13;;;;;;;41.30;28.70;;;;;;;10.04;73.25;100889.96;114721;1193;107990;-70
2021/10/28 19:31:03;;;;;;;43.60;29.50;;;;;;;10.01;73.27;100891.23;114589;1193;138170;-70
2021/10/28 19:33:54;;;;;;;45.40;28.70;;;;;;;9.97;73.44;100892.19;113290;1193;97516;-72
2021/10/28 19:37:00;;;;;;;44.70;30.60;;;;;;;9.94;73.52;100886.70;113927;1193;138307;-75
2021/10/28 19:46:11;;;;;;;45.80;30.10;;;;;;;9.79;73.74;100883.66;114617;1193;95935;-76
2021/10/28 19:48:58;;;;;;;48.70;33.10;;;;;;;9.74;73.67;100881.34;114583;1193;137668;-72
2021/10/28 19:51:45;;;;;;;47.80;31.90;;;;;;;9.71;74.19;100883.84;114101;1193;112039;-75
2021/10/28 19:54:36;;;;;;;47.20;31.60;;;;;;;9.68;74.04;100880.55;113151;1193;138568;-74
2021/10/28 19:57:25;;;;;;;51.70;33.80;;;;;;;9.65;74.04;100885.83;113294;1193;108715;-73
2021/10/28 20:21:27;;;;;;;50.00;34.40;;;;;;;9.33;74.90;100885.02;113064;1193;111686;-71
2021/10/28 20:24:13;;;;;;;51.80;34.00;;;;;;;9.29;75.10;100888.37;113196;1193;138665;-71
2021/10/28 20:27:00;;;;;;;51.30;36.50;;;;;;;9.25;75.43;100889.48;113268;1194;108607;-71
2021/10/28 20:29:47;;;;;;;54.20;35.80;;;;;;;9.21;75.35;100887.13;113125;1194;137936;-70
2021/10/28 20:32:36;;;;;;;55.00;36.10;;;;;;;9.16;75.70;100887.21;114738;1193;95690;-71
2021/10/28 20:38:10;;;;;;;53.70;36.90;;;;;;;9.10;76.11;100887.46;114764;1193;109217;-69
2021/10/28 20:40:57;;;;;;;62.20;38.40;;;;;;;9.07;76.04;100887.34;114683;1193;108265;-70
2021/10/28 20:43:44;;;;;;;53.20;35.20;;;;;;;9.05;76.12;100884.08;114561;1194;138095;-70
2021/10/28 20:46:31;;;;;;;53.40;36.00;;;;;;;9.03;76.11;100884.11;114591;1193;95691;-69
2021/10/28 20:49:18;;;;;;;58.00;39.10;;;;;;;9.01;75.99;100881.04;113164;1188;137663;-68
2021/10/28 20:52:07;;;;;;;61.90;38.80;;;;;;;8.99;76.00;100879.33;113300;1194;108736;-67
2021/10/28 20:54:54;;;;;;;54.20;37.30;;;;;;;8.97;76.04;100875.86;113147;1193;138430;-68
2021/10/28 20:57:42;;;;;;;60.50;40.60;;;;;;;8.95;76.22;100873.30;113347;1194;97599;-68
2021/10/28 21:00:29;;;;;;;60.50;40.60;;;;;;;8.92;76.40;100875.25;113245;1193;137583;-69
2021/10/28 21:03:17;;;;;;;58.30;39.60;;;;;;;8.89;76.41;100873.76;113243;1186;112512;-69
2021/10/28 21:06:04;;;;;;;58.30;39.10;;;;;;;8.85;76.62;100868.44;113219;1194;138644;-70
2021/10/28 21:08:51;;;;;;;62.00;39.80;;;;;;;8.83;76.48;100866.74;113347;1193;108574;-71
2021/10/28 21:11:39;;;;;;;56.10;38.30;;;;;;;8.79;76.83;100864.19;113219;1194;138627;-69
2021/10/28 21:14:26;;;;;;;57.80;37.90;;;;;;;8.76;76.96;100860.77;113255;1193;97505;-69
2021/10/28 21:17:13;;;;;;;60.60;38.80;;;;;;;8.75;76.79;100856.63;114685;1193;111638;-69
2021/10/28 21:20:00;;;;;;;61.10;39.80;;;;;;;8.74;76.80;100856.47;114653;1193;137649;-69
2021/10/28 21:22:48;;;;;;;67.90;40.40;;;;;;;8.73;76.98;100860.30;114752;1193;108540;-68
2021/10/28 21:25:35;;;;;;;59.70;38.60;;;;;;;8.69;77.22;100854.63;114639;1193;139755;-69
2021/10/28 21:28:22;;;;;;;62.20;40.80;;;;;;;8.68;77.01;100854.66;114757;1193;95758;-70
2021/10/28 21:31:09;;;;;;;63.70;41.10;;;;;;;8.65;77.06;100853.15;114561;1193;140110;-69
2021/10/28 21:33:56;;;;;;;62.90;39.70;;;;;;;8.62;77.10;100850.59;114682;1187;107378;-67
2021/10/28 21:36:42;;;;;;;65.60;41.40;;;;;;;8.59;77.07;100853.20;114629;1193;138043;-66
2021/10/28 21:39:29;;;;;;;65.80;41.40;;;;;;;8.57;77.12;100857.75;114770;1193;95737;-66
2021/10/28 21:42:16;;;;;;;59.50;40.00;;;;;;;8.53;77.29;100853.82;114642;1193;138771;-67
2021/10/28 21:45:11;;;;;;;59.50;38.60;;;;;;;8.50;77.30;100850.58;114746;1193;111988;-69
2021/10/28 21:47:59;;;;;;;60.40;40.30;;;;;;;8.48;77.28;100844.19;114666;1193;138176;-67
2021/10/28 21:50:49;;;;;;;63.60;41.40;;;;;;;8.45;77.66;100844.94;114704;1193;109433;-67
2021/10/28 21:53:41;;;;;;;58.20;39.40;;;;;;;8.42;77.49;100847.04;114395;1193;97506;-70
2021/10/28 21:56:37;;;;;;;63.50;41.30;;;;;;;8.42;77.68;100842.35;113235;1194;97603;-68
2021/10/28 22:05:41;;;;;;;64.70;41.70;;;;;;;8.34;78.04;100844.02;114754;1193;108603;-68